ADDS TAF Board (Experimental) INFO Settings

IDs: Format: Expanded Condensed

KCVG - Cincinnati Intl, KY, US

Issued at 2108 UTC 26 Apr 2015
Updated at: 2231 UTC 26 Apr 2015
Time2152Z 26/23Z 27/00Z 27/01Z 27/02Z 27/03Z 27/04Z 27/05Z 27/06Z 27/07Z 27/08Z 27/09Z 27/10Z 27/11Z
Type OBS PRVL PRVL PRVL PRVL PRVL PRVL PRVL PRVL PRVL PRVL PRVL PRVL PRVL
VIS 10 >6 >6 >6 >6 >6 >6 >6 >6 >6 >6 >6 >6 >6
CIG -- -- -- -- -- -- -- -- -- -- -- -- -- --
Cover SCT SCT SCT SCT SCT SCT SCT SCT SCT SCT SCT SCT SCT SCT
FltCat VFR VFR VFR VFR VFR VFR VFR VFR VFR VFR VFR VFR VFR VFR
WX -- -- -- -- -- -- -- -- -- -- -- -- -- --
WDir 20 10 10 350 350 350 350 350 350 350 350 350 350 350
WSpd 10 10 10 4 4 4 4 4 4 4 4 4 4 4
WGst 17 -- -- -- -- -- -- -- -- -- -- -- -- --
R09/27
XWnd 9 10 10 4 4 4 4 4 4 4 4 4 4 4
XGst 16 -- -- -- -- -- -- -- -- -- -- -- -- --
HWnd 3 2 2 -1 -1 -1 -1 -1 -1 -1 -1 -1 -1 -1
HGst 6 -- -- -- -- -- -- -- -- -- -- -- -- --
R18/36
XWnd 3 2 2 -1 -1 -1 -1 -1 -1 -1 -1 -1 -1 -1
XGst 6 -- -- -- -- -- -- -- -- -- -- -- -- --
HWnd -9 -10 -10 -4 -4 -4 -4 -4 -4 -4 -4 -4 -4 -4
HGst -16 -- -- -- -- -- -- -- -- -- -- -- -- --

NOTE: TEMPO conditions in [brackets]. Keep in mind TEMPO conditions might be better (lower impact) than prevailing conditions.

Raw TAF
KCVG 262108Z 2621/2724 01010KT P6SM SCT045
  FM270100 35004KT P6SM SCT040
  FM271300 32007KT P6SM BKN040
  FM272000 35011KT P6SM OVC040


Raw METAR
KCVG 262152Z 02010G17KT 10SM SCT055 15/02 A2984 RMK AO2 SLP103 T01500017 $
KCVG 262052Z 01011KT 10SM SCT055 14/02 A2983 RMK AO2 SLP100 T01440017 58005 $
KCVG 261952Z 02008G18KT 10SM FEW050 15/01 A2985 RMK AO2 SLP104 T01500011 $

METAR Board
Radar Display
Forecast Discussion

TAF Board Legend

Potential Impact
Threat None Slight Moderate High
Visibility (sm) ≥5.1 5.1>X≥3 3>X≥1 <1
Ceiling (100 ft) ≥30.1 30.1>X≥10 10>X≥5 <5
Wind Speed (kt) <10 10≤X<20 20≤X<30 ≥30
Wind Gust (kt) <15 15≤X<25 25≤X<35 ≥35
Weather No Wx Reported VCTS,-TS,-FZRA,SN TS,FZRA +TS,+FZRA,+SN